Huadong Pearl 8 — 3EQX7 — position and weather

sailwx.info

Track history (hours):
 
Tides and Currents Weather Stations Pressure Air Temp Water Temp Dewpoint Dewpoint Depression Visibility Wind Speed Wind Dir Waves Ship Positions

Huadong Pearl 8

Last reported at 2017-Jun-22 22:06 UTC. Time now 2017-Jun-23 22:24 UTC.
Position N 36°55' E 125°55'.

Length 196 m; draft 6.5 m.

Type: Passenger vessel. MMSI: 374869000.

Date/timePositionNaut miles runAvg speedWind from/ knotsBaromVisibWave heightAir tempDewpointWater temp
2017-Jun-22 22:06N 36°55' E 125°55'116.1
2017-Jun-22 22:01N 36°55' E 125°54'816.6
2017-Jun-22 21:30N 36°53' E 125°44'917.3
2017-Jun-22 21:01N 36°53' E 125°33'917.7
2017-Jun-22 20:31N 36°54' E 125°22'8118.8
2017-Jun-22 16:13N 36°51' E 123°41'419.8
2017-Jun-22 16:01N 36°51' E 123°36'1019.6
2017-Jun-22 15:30N 36°50' E 123°24'1519.4
2017-Jun-22 14:43N 36°50' E 123°05'419.1
2017-Jun-22 14:31N 36°51' E 122°59'8 0.5
2017-Jun-21 22:43N 36°50' E 122°50'513.0
2017-Jun-21 22:18N 36°51' E 122°56'513.2
2017-Jun-21 21:57N 36°51' E 123°02'  
2017-Jun-18 19:50N 36°53' E 124°42'620.2
2017-Jun-18 19:30N 36°53' E 124°34'1020.1
2017-Jun-18 19:00N 36°53' E 124°21'1019.9
2017-Jun-18 18:30N 36°52' E 124°09'1019.8
2017-Jun-18 17:59N 36°52' E 123°56'1320.0
2017-Jun-18 17:20N 36°51' E 123°40'720.0
2017-Jun-18 17:00N 36°50' E 123°32'1020.1
2017-Jun-18 16:30N 36°51' E 123°19'1020.1
2017-Jun-18 16:01N 36°52' E 123°07'1020.2
2017-Jun-18 15:31N 36°52' E 122°54'1020.2
2017-Jun-18 15:01N 36°51' E 122°42'12 0.3
2017-Jun-16 22:25N 36°51' E 122°56'4 0.1
2017-Jun-15 14:57N 36°51' E 123°01'2 0.0
2017-Jun-13 14:31N 36°50' E 123°02'019.2
2017-Jun-13 14:30N 36°50' E 123°02'  
Track history (hours):
 
Tides and Currents Weather Stations Pressure Air Temp Water Temp Dewpoint Dewpoint Depression Visibility Wind Speed Wind Dir Waves Ship Positions

Huadong Pearl 8

Last reported at 2017-Jun-22 22:06 UTC. Time now 2017-Jun-23 22:24 UTC.
Position N 36°55' E 125°55'.

Length 196 m; draft 6.5 m.

Type: Passenger vessel. MMSI: 374869000.

Date/timePositionNaut miles runAvg speedWind from/ knotsBaromVisibWave heightAir tempDewpointWater temp
2017-Jun-22 22:06N 36°55' E 125°55'116.1
2017-Jun-22 22:01N 36°55' E 125°54'816.6
2017-Jun-22 21:30N 36°53' E 125°44'917.3
2017-Jun-22 21:01N 36°53' E 125°33'917.7
2017-Jun-22 20:31N 36°54' E 125°22'8118.8
2017-Jun-22 16:13N 36°51' E 123°41'419.8
2017-Jun-22 16:01N 36°51' E 123°36'1019.6
2017-Jun-22 15:30N 36°50' E 123°24'1519.4
2017-Jun-22 14:43N 36°50' E 123°05'419.1
2017-Jun-22 14:31N 36°51' E 122°59'8 0.5
2017-Jun-21 22:43N 36°50' E 122°50'513.0
2017-Jun-21 22:18N 36°51' E 122°56'513.2
2017-Jun-21 21:57N 36°51' E 123°02'  
2017-Jun-18 19:50N 36°53' E 124°42'620.2
2017-Jun-18 19:30N 36°53' E 124°34'1020.1
2017-Jun-18 19:00N 36°53' E 124°21'1019.9
2017-Jun-18 18:30N 36°52' E 124°09'1019.8
2017-Jun-18 17:59N 36°52' E 123°56'1320.0
2017-Jun-18 17:20N 36°51' E 123°40'720.0
2017-Jun-18 17:00N 36°50' E 123°32'1020.1
2017-Jun-18 16:30N 36°51' E 123°19'1020.1
2017-Jun-18 16:01N 36°52' E 123°07'1020.2
2017-Jun-18 15:31N 36°52' E 122°54'1020.2
2017-Jun-18 15:01N 36°51' E 122°42'12 0.3
2017-Jun-16 22:25N 36°51' E 122°56'4 0.1
2017-Jun-15 14:57N 36°51' E 123°01'2 0.0
2017-Jun-13 14:31N 36°50' E 123°02'019.2
2017-Jun-13 14:30N 36°50' E 123°02'  

Dump ship's entire track history